Time;durP1;ratioP1;P1;durP2;ratioP2;P2;SDS_P1;SDS_P2;PMS_P1;PMS_P2;Temp;Humidity;BMP_temperature;BMP_pressure;BME280_temperature;BME280_humidity;BME280_pressure;Samples;Min_cycle;Max_cycle;Signal;HPM_P1;HPM_P2
2024/01/21 00:02:01;;;;;;;18.00;7.05;;;;;;;-0.49;61.77;102310.31;5027105;28;20083;-76
2024/01/21 00:04:26;;;;;;;10.18;5.55;;;;;;;-0.53;61.39;102304.13;5027213;28;20544;-76
2024/01/21 00:06:52;;;;;;;10.20;6.05;;;;;;;-0.54;61.43;102297.19;5031104;28;20276;-76
2024/01/21 00:09:17;;;;;;;8.75;5.80;;;;;;;-0.56;61.62;102293.66;5030713;28;20033;-76
2024/01/21 00:11:42;;;;;;;11.02;6.40;;;;;;;-0.61;61.38;102286.56;5035094;28;20554;-76
2024/01/21 00:14:07;;;;;;;10.10;5.38;;;;;;;-0.68;61.31;102271.66;5028842;28;20481;-76
2024/01/21 00:16:33;;;;;;;10.52;5.88;;;;;;;-0.69;61.63;102280.28;5030213;28;20057;-76
2024/01/21 00:18:58;;;;;;;10.48;6.00;;;;;;;-0.69;61.34;102272.50;5031549;28;20539;-76
2024/01/21 00:21:23;;;;;;;10.20;6.00;;;;;;;-0.69;61.34;102267.31;5010529;28;20056;-76
2024/01/21 00:23:49;;;;;;;10.65;5.38;;;;;;;-0.78;61.28;102267.91;5028068;28;20359;-76
2024/01/21 00:26:14;;;;;;;11.02;6.47;;;;;;;-0.81;61.41;102267.81;5025760;28;20052;-76
2024/01/21 00:28:39;;;;;;;8.30;5.97;;;;;;;-0.82;60.76;102273.84;5028449;28;20532;-76
2024/01/21 00:31:05;;;;;;;7.10;4.90;;;;;;;-0.83;60.84;102261.69;5028848;28;20115;-76
2024/01/21 00:33:30;;;;;;;8.95;5.60;;;;;;;-0.82;60.32;102261.75;5027629;28;20053;-76
2024/01/21 00:35:56;;;;;;;8.65;5.25;;;;;;;-0.79;60.71;102267.03;5026976;28;20057;-76
2024/01/21 00:38:21;;;;;;;9.02;5.45;;;;;;;-0.86;60.70;102251.22;5028155;28;20549;-75
2024/01/21 00:40:46;;;;;;;10.35;5.60;;;;;;;-0.81;60.57;102245.31;5010188;28;20109;-76
2024/01/21 00:43:12;;;;;;;11.10;6.10;;;;;;;-0.88;60.43;102251.19;5029800;28;20037;-76
2024/01/21 00:45:37;;;;;;;10.10;5.43;;;;;;;-0.86;61.23;102236.53;5027881;28;20392;-75
2024/01/21 00:48:03;;;;;;;8.18;5.88;;;;;;;-0.90;60.21;102242.44;5027071;28;20030;-75
2024/01/21 00:50:28;;;;;;;9.40;5.32;;;;;;;-0.98;60.10;102245.66;5030309;28;20107;-76
2024/01/21 00:52:54;;;;;;;8.77;4.82;;;;;;;-0.95;60.44;102253.53;5026162;28;20500;-76
2024/01/21 00:55:19;;;;;;;10.40;6.00;;;;;;;-1.03;59.92;102253.31;5025992;28;20037;-76
2024/01/21 00:57:45;;;;;;;11.25;5.47;;;;;;;-0.95;60.14;102253.53;5027121;28;20435;-75
2024/01/21 01:00:10;;;;;;;9.38;5.25;;;;;;;-0.99;59.70;102246.50;5023907;28;20056;-75
2024/01/21 01:02:36;;;;;;;9.70;5.50;;;;;;;-0.99;60.18;102246.50;5025359;28;20488;-75
2024/01/21 01:05:01;;;;;;;7.57;4.85;;;;;;;-1.02;60.47;102249.03;5024500;28;20040;-75
2024/01/21 01:07:27;;;;;;;11.07;5.28;;;;;;;-1.02;61.03;102242.13;5041115;28;20461;-75
2024/01/21 01:09:52;;;;;;;10.55;5.60;;;;;;;-1.05;62.02;102240.28;5028810;28;20116;-75
2024/01/21 01:12:18;;;;;;;8.50;5.40;;;;;;;-1.06;62.02;102237.66;5028398;28;20018;-75
2024/01/21 01:14:43;;;;;;;7.97;5.03;;;;;;;-1.14;61.79;102227.03;5026884;28;20029;-75
2024/01/21 01:17:08;;;;;;;9.70;5.05;;;;;;;-1.22;62.67;102223.31;5027392;28;20033;-75
2024/01/21 01:19:34;;;;;;;10.38;5.30;;;;;;;-1.24;62.18;102203.38;5007323;28;20376;-75
2024/01/21 01:22:00;;;;;;;8.05;4.68;;;;;;;-1.23;62.63;102202.53;5014169;28;20025;-75
2024/01/21 01:24:25;;;;;;;10.80;4.90;;;;;;;-1.26;62.71;102186.88;5031658;28;20132;-75
2024/01/21 01:26:50;;;;;;;7.43;4.95;;;;;;;-1.26;61.65;102192.94;5029258;28;20060;-75
2024/01/21 01:29:16;;;;;;;7.82;4.85;;;;;;;-1.25;61.91;102175.69;5029765;28;20084;-75
2024/01/21 01:31:42;;;;;;;11.80;6.55;;;;;;;-1.37;61.59;102169.28;5029566;28;20115;-75
2024/01/21 01:34:07;;;;;;;10.68;5.55;;;;;;;-1.34;61.42;102168.50;5030906;28;20551;-75
2024/01/21 01:36:33;;;;;;;9.55;5.95;;;;;;;-1.33;60.30;102167.66;5030806;28;20061;-75
2024/01/21 01:38:59;;;;;;;9.80;5.47;;;;;;;-1.27;60.93;102162.63;5030117;28;20029;-75
2024/01/21 01:41:24;;;;;;;7.45;4.72;;;;;;;-1.20;61.04;102159.41;5028660;28;20033;-75
2024/01/21 01:43:49;;;;;;;7.40;5.00;;;;;;;-1.26;60.18;102156.59;5029218;28;20405;-75
2024/01/21 01:46:15;;;;;;;9.63;5.70;;;;;;;-1.18;60.53;102155.13;5010418;28;20519;-76
2024/01/21 01:48:41;;;;;;;9.52;5.65;;;;;;;-1.20;60.42;102141.25;5028804;28;20095;-76
2024/01/21 01:51:07;;;;;;;9.68;4.88;;;;;;;-1.14;61.27;102135.34;5027649;28;20111;-76
2024/01/21 01:53:34;;;;;;;8.35;4.82;;;;;;;-1.14;60.09;102135.34;5009732;28;20029;-76
2024/01/21 01:56:00;;;;;;;9.68;4.97;;;;;;;-1.09;60.08;102132.03;5030053;28;20487;-76
2024/01/21 01:58:27;;;;;;;9.32;5.13;;;;;;;-1.05;59.25;102122.63;5028408;28;20102;-76
2024/01/21 02:00:53;;;;;;;9.07;5.15;;;;;;;-1.02;59.52;102127.91;5031387;28;20128;-76
2024/01/21 02:03:18;;;;;;;8.05;4.20;;;;;;;-0.98;59.23;102124.56;5012369;28;20452;-76
2024/01/21 02:05:44;;;;;;;9.65;5.45;;;;;;;-0.99;59.26;102119.31;5029376;28;20109;-76
2024/01/21 02:08:10;;;;;;;6.80;4.22;;;;;;;-0.98;59.06;102111.59;5029893;28;20036;-76
2024/01/21 02:10:35;;;;;;;7.28;4.07;;;;;;;-0.99;59.02;102107.22;5029599;28;20485;-76
2024/01/21 02:13:01;;;;;;;8.40;4.40;;;;;;;-1.01;58.46;102113.22;5029127;28;20026;-76
2024/01/21 02:15:26;;;;;;;10.80;4.45;;;;;;;-0.96;58.59;102102.13;5029521;28;20061;-76
2024/01/21 02:17:51;;;;;;;7.75;4.30;;;;;;;-1.00;58.63;102091.63;5028223;28;20376;-76
2024/01/21 02:20:16;;;;;;;8.90;4.63;;;;;;;-0.98;58.92;102093.44;5027252;28;20029;-76
2024/01/21 02:22:42;;;;;;;7.88;4.18;;;;;;;-0.97;59.02;102094.31;5028600;28;20025;-76
2024/01/21 02:25:09;;;;;;;8.88;4.15;;;;;;;-0.96;58.58;102089.13;5029095;28;20665;-76
2024/01/21 02:27:36;;;;;;;8.07;4.47;;;;;;;-0.94;58.65;102083.97;5028582;28;20064;-76
2024/01/21 02:30:02;;;;;;;9.25;4.95;;;;;;;-0.93;58.94;102075.34;5028806;28;20104;-76
2024/01/21 02:32:28;;;;;;;7.40;4.38;;;;;;;-0.89;58.52;102075.47;5026649;28;20587;-76
2024/01/21 02:34:53;;;;;;;8.40;4.47;;;;;;;-0.87;59.57;102076.41;5030691;28;20029;-76
2024/01/21 02:37:19;;;;;;;5.95;3.95;;;;;;;-0.83;60.49;102059.19;5027479;28;20365;-76
2024/01/21 02:39:44;;;;;;;5.63;4.28;;;;;;;-0.81;60.16;102066.16;5028381;28;20037;-76
2024/01/21 02:42:09;;;;;;;7.80;4.28;;;;;;;-0.77;59.25;102057.63;5010989;28;20041;-76
2024/01/21 02:44:35;;;;;;;9.13;4.20;;;;;;;-0.75;60.03;102049.00;5026317;28;20026;-76
2024/01/21 02:47:00;;;;;;;6.25;3.92;;;;;;;-0.71;59.73;102040.44;5028243;28;20028;-76
2024/01/21 02:49:28;;;;;;;4.35;3.28;;;;;;;-0.67;58.22;102037.97;5027787;28;20535;-76
2024/01/21 02:51:57;;;;;;;9.07;4.20;;;;;;;-0.63;60.07;102029.41;5028231;28;20472;-76
2024/01/21 02:54:23;;;;;;;7.18;4.15;;;;;;;-0.58;58.84;102029.53;5010783;28;20113;-76
2024/01/21 02:56:49;;;;;;;6.88;4.70;;;;;;;-0.54;57.37;102033.97;5027503;28;20029;-76
2024/01/21 02:59:14;;;;;;;7.80;3.42;;;;;;;-0.43;57.69;102042.00;5010499;28;20033;-76
2024/01/21 03:01:43;;;;;;;8.23;3.72;;;;;;;-0.38;60.30;102041.25;5027800;28;20372;-76
2024/01/21 03:04:12;;;;;;;6.63;3.92;;;;;;;-0.37;60.67;102036.97;5029367;28;20045;-76
2024/01/21 03:06:38;;;;;;;5.97;3.67;;;;;;;-0.37;60.62;102024.00;5028969;28;20602;-76
2024/01/21 03:09:03;;;;;;;6.35;3.58;;;;;;;-0.30;60.99;102026.75;5028879;28;20101;-76
2024/01/21 03:11:30;;;;;;;8.40;3.50;;;;;;;-0.30;59.70;102026.75;5009725;28;20388;-77
2024/01/21 03:13:56;;;;;;;6.10;3.38;;;;;;;-0.23;60.61;102017.41;5028926;28;20413;-76
2024/01/21 03:16:21;;;;;;;4.78;2.95;;;;;;;-0.28;59.59;102004.28;5027809;28;20035;-77
2024/01/21 03:18:46;;;;;;;6.75;3.55;;;;;;;-0.23;59.59;101995.69;5028603;28;20037;-77
2024/01/21 03:21:12;;;;;;;9.88;4.43;;;;;;;-0.23;61.73;101996.59;5026057;28;20025;-76
2024/01/21 03:23:37;;;;;;;6.07;3.42;;;;;;;-0.24;61.90;101992.22;5028201;28;20029;-77
2024/01/21 03:26:02;;;;;;;6.38;3.45;;;;;;;-0.26;61.97;101992.19;5008588;28;20040;-77
2024/01/21 03:28:28;;;;;;;5.40;3.38;;;;;;;-0.33;61.13;101986.81;5027418;28;20386;-77
2024/01/21 03:30:53;;;;;;;4.45;3.00;;;;;;;-0.40;59.76;102000.53;5028054;28;20063;-77
2024/01/21 03:33:18;;;;;;;7.53;3.30;;;;;;;-0.33;61.39;101995.53;5035449;28;20124;-77
2024/01/21 03:35:44;;;;;;;6.68;3.85;;;;;;;-0.32;59.84;102004.19;5028629;28;20104;-77
2024/01/21 03:38:09;;;;;;;7.88;3.13;;;;;;;-0.25;60.27;102006.06;5033704;28;20033;-77
2024/01/21 03:40:34;;;;;;;5.60;3.10;;;;;;;-0.29;59.63;101997.31;5030733;28;20025;-77
2024/01/21 03:43:00;;;;;;;8.68;3.65;;;;;;;-0.23;60.00;101998.28;5032627;28;20032;-77
2024/01/21 03:45:25;;;;;;;7.07;3.65;;;;;;;-0.29;61.58;101999.91;5007105;28;20554;-77
2024/01/21 03:47:51;;;;;;;4.80;3.60;;;;;;;-0.29;60.06;101999.03;5025721;28;20029;-77
2024/01/21 03:50:18;;;;;;;5.38;3.28;;;;;;;-0.37;60.60;101987.63;5010353;28;20033;-77
2024/01/21 03:52:44;;;;;;;5.55;3.42;;;;;;;-0.33;60.36;101994.59;5030824;28;20079;-77
2024/01/21 03:55:10;;;;;;;13.90;3.83;;;;;;;-0.34;61.41;101995.47;5030103;28;20064;-77
2024/01/21 03:57:36;;;;;;;7.65;3.97;;;;;;;-0.30;61.56;101994.69;5030009;28;20108;-77
2024/01/21 04:00:02;;;;;;;6.70;3.60;;;;;;;-0.30;61.02;101990.38;5017109;28;20021;-77
2024/01/21 04:02:29;;;;;;;7.10;3.67;;;;;;;-0.33;61.52;101979.03;5028752;28;20037;-77
2024/01/21 04:04:55;;;;;;;5.13;3.33;;;;;;;-0.24;60.30;101953.25;5028811;28;20031;-77
2024/01/21 04:07:20;;;;;;;8.30;3.55;;;;;;;-0.18;59.47;101936.94;5029197;28;20025;-77
2024/01/21 04:09:45;;;;;;;4.82;2.80;;;;;;;-0.09;59.59;101935.41;5030635;28;20027;-77
2024/01/21 04:12:11;;;;;;;7.38;3.92;;;;;;;-0.02;60.36;101939.88;5027066;28;20029;-77
2024/01/21 04:14:38;;;;;;;7.45;3.50;;;;;;;0.03;60.45;101933.88;5031200;28;20036;-77
2024/01/21 04:17:03;;;;;;;3.95;2.95;;;;;;;-0.01;61.10;101933.81;5010748;28;20030;-77
2024/01/21 04:19:28;;;;;;;6.50;2.90;;;;;;;0.01;61.64;101935.59;5032001;28;20357;-77
2024/01/21 04:21:54;;;;;;;3.95;2.88;;;;;;;-0.04;59.93;101932.91;5031058;28;20017;-77
2024/01/21 04:24:19;;;;;;;6.70;3.33;;;;;;;-0.03;60.32;101943.31;5024407;28;20037;-77
2024/01/21 04:26:44;;;;;;;6.40;3.22;;;;;;;0.02;59.12;101953.81;5027415;28;20539;-77
2024/01/21 04:29:10;;;;;;;4.10;2.83;;;;;;;0.03;60.79;101939.09;5027888;28;20046;-77
2024/01/21 04:31:35;;;;;;;6.28;3.15;;;;;;;0.08;60.56;101943.53;5030699;28;20067;-77
2024/01/21 04:34:00;;;;;;;6.63;2.88;;;;;;;0.18;59.37;101929.00;5030287;28;20064;-77
2024/01/21 04:36:25;;;;;;;4.72;2.97;;;;;;;0.25;59.24;101934.34;5033489;28;20029;-77
2024/01/21 04:38:51;;;;;;;6.45;3.85;;;;;;;0.32;58.37;101922.34;5032619;28;20028;-77
2024/01/21 04:41:16;;;;;;;4.78;3.10;;;;;;;0.40;58.78;101915.56;5033703;28;20382;-77
2024/01/21 04:43:44;;;;;;;5.82;3.28;;;;;;;0.43;59.71;101905.22;5020092;28;20027;-77
2024/01/21 04:46:10;;;;;;;6.50;3.67;;;;;;;0.45;60.36;101895.72;5014225;28;20033;-77
2024/01/21 04:48:36;;;;;;;5.38;3.28;;;;;;;0.45;60.81;101872.28;5034608;28;20029;-77
2024/01/21 04:51:01;;;;;;;6.03;3.60;;;;;;;0.46;60.86;101867.97;5031580;28;20386;-77
2024/01/21 04:53:26;;;;;;;5.25;3.05;;;;;;;0.51;60.87;101868.91;5027826;28;20018;-77
2024/01/21 04:55:52;;;;;;;6.80;3.40;;;;;;;0.50;61.41;101847.22;5013399;28;20033;-77
2024/01/21 04:58:17;;;;;;;5.88;3.33;;;;;;;0.57;59.61;101842.16;5034942;28;20029;-77
2024/01/21 05:00:42;;;;;;;5.80;3.75;;;;;;;0.63;60.68;101834.44;5031128;28;20025;-77
2024/01/21 05:03:08;;;;;;;5.30;3.80;;;;;;;0.66;60.72;101839.72;5032529;28;20116;-77
2024/01/21 05:05:34;;;;;;;5.75;3.13;;;;;;;0.78;58.40;101837.28;5014411;28;20029;-77
2024/01/21 05:07:59;;;;;;;5.97;3.95;;;;;;;0.93;58.63;101834.03;5031165;28;20065;-77
2024/01/21 05:10:25;;;;;;;5.70;3.63;;;;;;;1.04;58.33;101831.63;5014199;28;20048;-77
2024/01/21 05:12:50;;;;;;;8.07;3.47;;;;;;;1.19;58.49;101840.53;5012207;28;20017;-77
2024/01/21 05:15:15;;;;;;;6.32;3.78;;;;;;;1.29;57.02;101854.53;5018078;28;20087;-78
2024/01/21 05:17:41;;;;;;;6.82;3.92;;;;;;;1.37;56.17;101836.44;5040453;28;20056;-78
2024/01/21 05:20:08;;;;;;;6.50;3.08;;;;;;;1.55;56.75;101836.66;5034176;28;20116;-77
2024/01/21 05:22:34;;;;;;;6.30;3.67;;;;;;;1.59;56.82;101845.41;5025878;28;20117;-77
2024/01/21 05:24:59;;;;;;;6.47;3.67;;;;;;;1.66;54.80;101852.44;5039471;28;20115;-78
2024/01/21 05:27:25;;;;;;;4.85;3.40;;;;;;;1.79;55.47;101851.75;5031967;28;20029;-78
2024/01/21 05:29:50;;;;;;;9.60;4.93;;;;;;;1.81;55.28;101849.13;5032047;28;20049;-77
2024/01/21 05:32:15;;;;;;;8.25;5.03;;;;;;;1.81;54.08;101849.13;5017955;28;20647;-78
2024/01/21 05:34:41;;;;;;;6.90;4.38;;;;;;;1.91;55.53;101830.13;5014889;28;20031;-78
2024/01/21 05:37:06;;;;;;;4.88;3.47;;;;;;;1.88;55.58;101831.00;5038011;28;20473;-78
2024/01/21 05:39:32;;;;;;;9.25;4.40;;;;;;;1.88;54.65;101848.38;5033166;28;20067;-79
2024/01/21 05:42:04;;;;;;;7.80;4.32;;;;;;;1.95;54.70;101845.81;5025425;28;20531;-79
2024/01/21 05:44:30;;;;;;;7.22;4.22;;;;;;;2.02;54.04;101842.44;5030702;28;20029;-78
2024/01/21 05:46:56;;;;;;;6.43;3.92;;;;;;;2.06;54.25;101829.44;5034276;28;20532;-78
2024/01/21 05:49:22;;;;;;;5.68;4.15;;;;;;;1.97;54.35;101823.28;5035752;28;20075;-78
2024/01/21 05:51:47;;;;;;;7.72;4.50;;;;;;;2.02;54.63;101824.19;5011346;28;20237;-78
2024/01/21 05:54:12;;;;;;;6.88;3.70;;;;;;;2.00;55.01;101833.72;5033038;28;20036;-78
2024/01/21 05:56:38;;;;;;;7.47;4.07;;;;;;;2.01;55.64;101843.31;5017984;28;20616;-78
2024/01/21 05:59:03;;;;;;;8.90;4.60;;;;;;;1.97;55.38;101818.06;5034089;28;20049;-78
2024/01/21 06:01:28;;;;;;;6.07;4.82;;;;;;;1.90;54.55;101826.66;5013035;28;20287;-78
2024/01/21 06:03:54;;;;;;;6.97;3.92;;;;;;;1.96;54.44;101826.75;5029356;28;20053;-79
2024/01/21 06:06:19;;;;;;;6.72;5.00;;;;;;;1.97;54.40;101851.09;5031164;28;20021;-79
2024/01/21 06:08:44;;;;;;;6.88;3.60;;;;;;;2.01;55.44;101829.41;5032030;28;20029;-78
2024/01/21 06:11:10;;;;;;;6.85;4.10;;;;;;;1.99;54.78;101820.66;5028972;28;20060;-78
2024/01/21 06:13:35;;;;;;;6.85;4.00;;;;;;;1.96;55.09;101810.22;5026320;28;20013;-78
2024/01/21 06:16:01;;;;;;;6.22;4.03;;;;;;;1.94;56.18;101807.56;5028937;28;20079;-78
2024/01/21 06:18:26;;;;;;;6.95;4.72;;;;;;;1.90;55.13;101811.00;5022159;28;20039;-78
2024/01/21 06:20:51;;;;;;;7.47;5.63;;;;;;;1.91;54.10;101824.91;5043093;28;20261;-79
2024/01/21 06:23:17;;;;;;;8.98;4.97;;;;;;;2.01;55.23;101832.00;5031578;28;20108;-79
2024/01/21 06:25:42;;;;;;;8.15;4.38;;;;;;;2.01;55.53;101819.84;5036015;28;20049;-79
2024/01/21 06:28:07;;;;;;;7.05;4.60;;;;;;;2.04;54.74;101835.50;5017780;28;20049;-79
2024/01/21 06:30:33;;;;;;;7.82;4.65;;;;;;;2.03;53.53;101846.78;5036879;28;20476;-79
2024/01/21 06:32:58;;;;;;;9.77;5.13;;;;;;;2.11;54.81;101840.81;5026421;28;20065;-79
2024/01/21 06:35:23;;;;;;;7.05;4.82;;;;;;;2.08;54.48;101828.59;5015389;28;20059;-78
2024/01/21 06:37:49;;;;;;;10.77;4.05;;;;;;;2.13;53.67;101842.56;5032408;28;20037;-79
2024/01/21 06:40:14;;;;;;;8.27;4.47;;;;;;;2.16;53.34;101832.16;5033233;28;20029;-79
2024/01/21 06:42:39;;;;;;;8.38;5.53;;;;;;;2.21;54.67;101838.28;5031601;28;20072;-79
2024/01/21 06:45:05;;;;;;;7.43;4.30;;;;;;;2.25;53.40;101847.03;5035772;28;20536;-79
2024/01/21 06:47:30;;;;;;;6.65;3.95;;;;;;;2.30;53.28;101840.13;5036467;28;20025;-78
2024/01/21 06:49:56;;;;;;;7.97;5.07;;;;;;;2.25;54.19;101841.81;5034728;28;20017;-76
2024/01/21 06:52:23;;;;;;;7.88;5.18;;;;;;;2.21;53.36;101848.72;5025250;28;20048;-76
2024/01/21 06:54:48;;;;;;;7.90;4.65;;;;;;;2.25;53.54;101857.47;5024287;28;20026;-76
2024/01/21 06:57:14;;;;;;;10.80;4.80;;;;;;;2.28;52.87;101855.78;5030978;28;20115;-76
2024/01/21 06:59:39;;;;;;;6.82;4.13;;;;;;;2.34;51.89;101878.44;5027936;28;20037;-76
2024/01/21 07:02:04;;;;;;;7.43;4.45;;;;;;;2.39;52.38;101844.56;5027809;28;20032;-76
2024/01/21 07:04:30;;;;;;;6.88;3.80;;;;;;;2.45;53.85;101845.47;5030588;28;20104;-75
2024/01/21 07:06:55;;;;;;;7.53;4.47;;;;;;;2.37;52.55;101847.13;5030536;28;20444;-75
2024/01/21 07:09:20;;;;;;;7.00;3.78;;;;;;;2.43;53.50;101830.69;5038385;28;20033;-75
2024/01/21 07:11:46;;;;;;;6.65;4.82;;;;;;;2.38;53.22;101817.59;5014617;28;20472;-75
2024/01/21 07:14:11;;;;;;;6.38;3.85;;;;;;;2.48;51.64;101801.16;5012349;28;20021;-75
2024/01/21 07:16:37;;;;;;;8.50;4.97;;;;;;;2.44;51.57;101791.53;5029234;28;20056;-75
2024/01/21 07:19:02;;;;;;;9.05;5.32;;;;;;;2.37;51.96;101776.69;5031808;28;20053;-75
2024/01/21 07:21:28;;;;;;;8.57;4.75;;;;;;;2.42;52.23;101784.56;5029823;28;20036;-75
2024/01/21 07:23:53;;;;;;;6.93;5.07;;;;;;;2.41;52.71;101781.06;5033496;28;20053;-75
2024/01/21 07:26:22;;;;;;;8.68;4.45;;;;;;;2.41;52.71;101794.13;5025077;28;20341;-75
2024/01/21 07:28:48;;;;;;;7.50;4.65;;;;;;;2.43;52.92;101791.53;5032196;28;20120;-75
2024/01/21 07:31:13;;;;;;;8.50;4.55;;;;;;;2.32;52.93;101781.00;5028965;28;20118;-75
2024/01/21 07:33:38;;;;;;;7.40;4.30;;;;;;;2.39;51.89;101788.03;5025804;28;20018;-76
2024/01/21 07:36:04;;;;;;;8.23;4.55;;;;;;;2.30;52.18;101783.59;5028735;28;20017;-75
2024/01/21 07:38:29;;;;;;;8.32;4.90;;;;;;;2.30;52.91;101787.94;5027117;28;20037;-75
2024/01/21 07:40:55;;;;;;;6.93;4.32;;;;;;;2.32;52.03;101795.78;5012444;28;20030;-76
2024/01/21 07:43:20;;;;;;;6.10;3.88;;;;;;;2.39;52.33;101792.38;5036527;28;20025;-76
2024/01/21 07:45:46;;;;;;;8.02;5.60;;;;;;;2.29;51.16;101792.28;5035362;28;20021;-75
2024/01/21 07:48:11;;;;;;;7.47;5.18;;;;;;;2.32;53.31;101773.16;5035691;28;20040;-75
2024/01/21 07:50:37;;;;;;;7.20;4.00;;;;;;;2.33;52.99;101779.25;5033026;28;20048;-75
2024/01/21 07:53:02;;;;;;;5.95;3.38;;;;;;;2.31;53.98;101805.34;5013712;28;20480;-75
2024/01/21 07:55:28;;;;;;;7.53;3.92;;;;;;;2.23;53.23;101825.25;5023495;28;20021;-75
2024/01/21 07:57:53;;;;;;;6.65;4.65;;;;;;;2.23;52.45;101826.13;5032475;28;20552;-75
2024/01/21 08:00:18;;;;;;;6.50;3.90;;;;;;;2.36;53.52;101837.56;5011100;28;20025;-75
2024/01/21 08:02:44;;;;;;;5.40;3.90;;;;;;;2.36;52.25;101821.91;5027746;28;20487;-76
2024/01/21 08:05:09;;;;;;;7.38;4.65;;;;;;;2.43;51.78;101851.56;5027848;28;20397;-76
2024/01/21 08:07:34;;;;;;;4.53;3.45;;;;;;;2.39;51.92;101868.94;5030601;28;20104;-76
2024/01/21 08:10:00;;;;;;;6.30;3.63;;;;;;;2.41;52.11;101867.19;5034741;28;20036;-75
2024/01/21 08:12:25;;;;;;;7.80;4.32;;;;;;;2.37;52.88;101877.59;5018994;28;20542;-75
2024/01/21 08:14:51;;;;;;;7.82;4.05;;;;;;;2.41;52.51;101903.72;5029940;28;20373;-75
2024/01/21 08:17:16;;;;;;;7.05;4.55;;;;;;;2.44;52.44;101908.13;5016562;28;20119;-75
2024/01/21 08:19:41;;;;;;;7.95;4.10;;;;;;;2.49;52.83;101899.47;5029472;28;20509;-75
2024/01/21 08:22:10;;;;;;;6.50;3.90;;;;;;;2.60;53.40;101911.75;5028125;28;20052;-76
2024/01/21 08:24:36;;;;;;;5.72;4.32;;;;;;;2.65;52.23;101905.69;5011136;28;20120;-76
2024/01/21 08:27:01;;;;;;;11.55;4.65;;;;;;;2.79;52.70;101887.53;5030390;28;20429;-75
2024/01/21 08:29:27;;;;;;;5.63;3.22;;;;;;;2.84;53.37;101895.44;5021751;28;20049;-76
2024/01/21 08:31:56;;;;;;;10.20;3.95;;;;;;;2.78;53.36;101884.06;5024113;28;20037;-77
2024/01/21 08:34:21;;;;;;;7.72;5.15;;;;;;;2.68;53.25;101879.63;5044131;28;20461;-76
2024/01/21 08:36:47;;;;;;;6.47;3.92;;;;;;;2.80;53.00;101898.03;5032117;28;20032;-75
2024/01/21 08:39:12;;;;;;;7.47;3.72;;;;;;;2.77;53.02;101873.63;5030599;28;20025;-76
2024/01/21 08:41:38;;;;;;;7.07;4.05;;;;;;;2.87;52.16;101878.03;5036595;28;20108;-77
2024/01/21 08:44:03;;;;;;;6.70;3.78;;;;;;;2.82;52.56;101861.47;5040557;28;20484;-76
2024/01/21 08:46:29;;;;;;;6.82;3.92;;;;;;;2.91;53.16;101866.78;5020804;28;20064;-78
2024/01/21 08:48:55;;;;;;;5.35;3.67;;;;;;;2.86;51.74;101858.03;5037296;28;20060;-77
2024/01/21 08:51:20;;;;;;;7.30;4.50;;;;;;;2.89;53.06;101889.41;5034116;28;20045;-77
2024/01/21 08:53:45;;;;;;;6.20;4.35;;;;;;;2.88;52.76;101885.00;5032498;28;20021;-76
2024/01/21 08:56:11;;;;;;;7.25;5.05;;;;;;;2.98;52.92;101896.41;5034245;28;20037;-76
2024/01/21 08:58:36;;;;;;;4.97;3.42;;;;;;;3.15;55.12;101886.09;5024115;28;20029;-77
2024/01/21 09:01:01;;;;;;;7.57;4.30;;;;;;;3.20;54.67;101892.22;5036628;28;20036;-77
2024/01/21 09:03:27;;;;;;;6.45;4.05;;;;;;;3.12;55.59;101884.31;5033951;28;20021;-77
2024/01/21 09:05:52;;;;;;;6.38;3.95;;;;;;;3.22;56.60;101894.00;5018336;28;20548;-77
2024/01/21 09:08:17;;;;;;;7.97;4.93;;;;;;;3.14;57.12;101876.53;5055626;28;20053;-76
2024/01/21 09:10:43;;;;;;;5.80;3.42;;;;;;;3.13;56.96;101880.88;5034830;28;20036;-77
2024/01/21 09:13:09;;;;;;;7.45;5.35;;;;;;;3.06;57.27;101884.28;5032823;28;20075;-77
2024/01/21 09:15:34;;;;;;;6.20;4.18;;;;;;;3.12;58.85;101881.72;5036340;28;20040;-78
2024/01/21 09:18:00;;;;;;;5.95;4.07;;;;;;;3.05;58.93;101877.31;5026338;28;20464;-77
2024/01/21 09:20:25;;;;;;;6.80;4.35;;;;;;;3.16;60.24;101887.84;5028415;28;20503;-77
2024/01/21 09:22:50;;;;;;;5.35;3.63;;;;;;;3.21;59.70;101899.19;5030072;28;20110;-77
2024/01/21 09:25:16;;;;;;;6.65;4.07;;;;;;;3.23;60.15;101921.00;5038441;28;20048;-77
2024/01/21 09:27:41;;;;;;;8.75;4.47;;;;;;;3.24;60.25;101912.28;5022518;28;20025;-76
2024/01/21 09:30:06;;;;;;;4.97;3.53;;;;;;;3.26;60.94;101898.41;5034729;28;20120;-77
2024/01/21 09:32:32;;;;;;;6.80;4.82;;;;;;;3.16;62.03;101916.59;5029673;28;20029;-77
2024/01/21 09:34:57;;;;;;;7.03;4.93;;;;;;;3.19;62.07;101942.75;5026955;28;20025;-76
2024/01/21 09:37:22;;;;;;;6.80;4.47;;;;;;;3.22;62.66;101916.66;5031671;28;20037;-77
2024/01/21 09:39:48;;;;;;;8.55;3.95;;;;;;;3.24;63.12;101925.38;5032110;28;20033;-77
2024/01/21 09:42:17;;;;;;;7.05;4.25;;;;;;;3.16;63.93;101919.19;5015095;28;20432;-77
2024/01/21 09:44:43;;;;;;;8.00;5.38;;;;;;;3.12;64.73;101939.19;5037143;28;20029;-77
2024/01/21 09:47:10;;;;;;;5.57;4.07;;;;;;;3.18;65.34;101944.50;5034402;28;20033;-76
2024/01/21 09:49:37;;;;;;;5.35;3.40;;;;;;;3.17;65.49;101942.75;5034884;28;20091;-77
2024/01/21 09:52:04;;;;;;;7.07;4.28;;;;;;;3.13;66.57;101929.66;5030155;28;20379;-76
2024/01/21 09:54:30;;;;;;;7.15;4.22;;;;;;;3.17;67.17;101936.63;5026486;28;20449;-77
2024/01/21 09:56:55;;;;;;;7.00;4.40;;;;;;;3.13;67.99;101937.47;5032332;28;20118;-76
2024/01/21 09:59:21;;;;;;;4.90;3.65;;;;;;;3.12;68.32;101947.03;5015784;28;20021;-76
2024/01/21 10:01:47;;;;;;;8.52;4.43;;;;;;;3.12;68.81;101948.78;5026036;28;20057;-76
2024/01/21 10:04:17;;;;;;;7.82;5.50;;;;;;;3.12;69.05;101941.81;5026073;28;20067;-76
2024/01/21 10:06:43;;;;;;;7.82;4.47;;;;;;;3.19;68.84;101935.78;5029864;28;20502;-75
2024/01/21 10:09:19;;;;;;;8.35;4.22;;;;;;;3.17;68.91;101928.78;5033164;28;20032;-76
2024/01/21 10:11:48;;;;;;;5.35;3.90;;;;;;;3.24;69.07;101927.97;5021656;28;20226;-76
2024/01/21 10:14:14;;;;;;;8.15;4.70;;;;;;;3.17;70.10;101919.22;5030562;28;20033;-76
2024/01/21 10:16:41;;;;;;;10.35;4.55;;;;;;;3.23;70.59;101924.50;5028762;28;20032;-76
2024/01/21 10:19:07;;;;;;;6.70;5.03;;;;;;;3.23;70.82;101921.00;5029156;28;20021;-77
2024/01/21 10:21:32;;;;;;;8.38;4.70;;;;;;;3.33;70.53;101917.59;5026159;28;20436;-77
2024/01/21 10:23:57;;;;;;;7.65;4.88;;;;;;;3.24;72.34;101927.97;5026698;28;20052;-77
2024/01/21 10:26:22;;;;;;;7.75;5.30;;;;;;;3.28;72.27;101904.50;5021701;28;20124;-76
2024/01/21 10:28:48;;;;;;;9.07;5.35;;;;;;;3.25;72.78;101914.03;5029630;28;20577;-77
2024/01/21 10:31:13;;;;;;;7.07;4.35;;;;;;;3.35;72.96;101894.94;5017920;28;20496;-77
2024/01/21 10:33:43;;;;;;;6.25;5.38;;;;;;;3.36;73.08;101893.19;5031945;28;20017;-77
2024/01/21 10:36:10;;;;;;;6.95;4.03;;;;;;;3.36;73.40;101895.81;5032196;28;20488;-77
2024/01/21 10:38:45;;;;;;;8.73;5.38;;;;;;;3.30;73.79;101880.97;5013331;28;20033;-77
2024/01/21 10:41:14;;;;;;;7.35;5.38;;;;;;;3.31;73.49;101912.38;5028581;28;20361;-76
2024/01/21 10:43:41;;;;;;;7.88;4.18;;;;;;;3.33;73.69;101879.25;5029233;28;20487;-77
2024/01/21 10:46:07;;;;;;;7.68;4.70;;;;;;;3.41;73.35;101883.66;5012846;28;20025;-78
2024/01/21 10:48:34;;;;;;;8.52;5.65;;;;;;;3.52;72.86;101888.09;5029485;28;20711;-77
2024/01/21 10:51:01;;;;;;;9.27;6.00;;;;;;;3.44;73.39;101884.53;5036891;28;20547;-77
2024/01/21 10:53:27;;;;;;;11.10;5.28;;;;;;;3.53;73.09;101871.53;5008550;28;20022;-77
2024/01/21 10:55:53;;;;;;;8.32;4.93;;;;;;;3.65;72.52;101880.31;5032609;28;20029;-77
2024/01/21 10:58:18;;;;;;;8.43;5.28;;;;;;;3.70;72.14;101871.63;4994759;28;20056;-76
2024/01/21 11:00:45;;;;;;;7.72;5.38;;;;;;;3.74;71.67;101875.13;5030389;28;20021;-77
2024/01/21 11:03:29;;;;;;;9.55;5.18;;;;;;;3.78;71.47;101877.75;5018455;28;20337;-77
2024/01/21 11:06:00;;;;;;;6.80;3.65;;;;;;;3.90;70.70;101868.22;5028843;28;20057;-77
2024/01/21 11:08:26;;;;;;;7.20;5.47;;;;;;;3.87;70.40;101853.41;5031638;28;20029;-77
2024/01/21 11:11:01;;;;;;;7.35;4.55;;;;;;;4.04;70.30;101854.28;5029754;28;20096;-76
2024/01/21 11:13:45;;;;;;;8.27;4.88;;;;;;;4.30;69.39;101856.13;5031211;28;20033;-78
2024/01/21 11:16:31;;;;;;;7.57;4.50;;;;;;;4.51;68.49;101856.13;5010437;28;20048;-75
2024/01/21 11:19:05;;;;;;;6.63;4.45;;;;;;;4.46;68.00;101884.06;4996001;28;20045;-80
2024/01/21 11:21:32;;;;;;;8.38;4.72;;;;;;;4.52;67.73;101884.09;5031407;28;20368;-79
2024/01/21 11:24:01;;;;;;;8.02;5.13;;;;;;;4.77;66.93;101868.41;5029923;28;20025;-80